Weather at Kuala Penyu Airport

Public forecast

Using degrees Celsius for public forecast. Weather courtesy of forecast.io.

Closest aviation weather report (METAR) to Kuala Penyu Airport

Closest report is Labuan Airport, 26.8 nm (49.7 km) SW. Retrieved 2022/07/01 16:00 UTC (45 minutes ago):

WBKL 011600Z VRB02KT 9999 FEW014 28/26 Q1007

Closest aviation forecast (TAF) to Kuala Penyu Airport

Closest forecast is Labuan Airport, 26.8 nm (49.7 km) SW. Retrieved 2022/07/01 12:00 UTC (5 hours ago):

TAF WBKL 011100Z 0112/0212 VRB03KT 9999 FEW015 PROB30 TEMPO 0122/0202 23005G18KT 5000 TSRA FEW010 FEW016CB SCT030